Gatewood, West Virginia
Current Conditions -  °F | °C
As of 6:58 PM on Saturday 25 Oct 2014 (Local Time) from KBKW Reporting Station
Scattered Clouds Scattered Clouds  
Wind Chill: 57°   Ceiling: Unl
Heat Index: 57°   Visibility: 10mi
Dew Point: 44°   Wind: 9mph
Humidity: 62%   Direction: 250°WSW
Pressure: 29.96"   Gusts: NA
Location:  38.0317°N, 81.0282°W
Report Text: KBKW 252258Z AUTO 25008KT 10SM SCT024 14/07 A2996 RMK AO2 T01390067 TSNO
Loading
Personal Weather Stations






























Interactive Weather Map
Tropical Storm Tracking
New forecast layout! Learn more

10-Day Weather Forecast

Advertisements
Track Severe Weather on mobile